Time;durP1;ratioP1;P1;durP2;ratioP2;P2;SDS_P1;SDS_P2;PMS_P1;PMS_P2;Temp;Humidity;BMP_temperature;BMP_pressure;BME280_temperature;BME280_humidity;BME280_pressure;Samples;Min_cycle;Max_cycle;Signal;HPM_P1;HPM_P2
2022/06/19 00:01:09;;;;;;;13.23;5.25;;;;;;;21.31;74.58;100031.59;4971440;28;20121;-71
2022/06/19 00:03:45;;;;;;;11.23;5.00;;;;;;;21.25;74.64;100030.63;4987055;28;20058;-72
2022/06/19 00:06:11;;;;;;;13.30;5.40;;;;;;;21.33;74.72;100031.38;4971551;28;20265;-71
2022/06/19 00:08:36;;;;;;;9.82;4.78;;;;;;;21.40;74.40;100026.72;4953172;28;20704;-72
2022/06/19 00:11:02;;;;;;;10.38;4.88;;;;;;;21.40;74.07;100034.78;4968835;28;20606;-71
2022/06/19 00:13:27;;;;;;;12.13;5.45;;;;;;;21.43;73.88;100021.72;4989713;28;20068;-70
2022/06/19 00:15:53;;;;;;;12.02;4.63;;;;;;;21.33;73.95;100026.78;4987640;28;20014;-69
2022/06/19 00:18:19;;;;;;;15.07;5.70;;;;;;;21.37;73.96;100029.88;4971262;28;20165;-72
2022/06/19 00:20:44;;;;;;;8.80;4.93;;;;;;;21.34;74.05;100016.88;4969048;28;20009;-72
2022/06/19 00:23:10;;;;;;;19.95;5.20;;;;;;;21.35;73.78;100015.81;4974745;28;20063;-72
2022/06/19 00:25:35;;;;;;;13.02;5.00;;;;;;;21.39;73.99;100022.38;4973618;28;20026;-71
2022/06/19 00:28:01;;;;;;;11.00;4.70;;;;;;;21.38;73.48;100016.19;4986486;28;20601;-69
2022/06/19 00:30:27;;;;;;;11.60;4.60;;;;;;;21.33;73.78;100013.34;4970904;28;20276;-71
2022/06/19 00:32:52;;;;;;;12.95;4.93;;;;;;;21.35;73.41;100005.88;4967651;28;20969;-71
2022/06/19 00:35:18;;;;;;;13.50;4.65;;;;;;;21.25;73.65;100002.88;4966695;28;20105;-71
2022/06/19 00:37:43;;;;;;;11.52;4.70;;;;;;;21.27;73.52;99993.53;4970276;28;20184;-69
2022/06/19 00:40:09;;;;;;;10.68;4.50;;;;;;;21.27;73.66;99990.03;4980761;28;20879;-69
2022/06/19 00:42:35;;;;;;;11.77;4.43;;;;;;;21.18;74.04;99984.16;4969997;28;20823;-71
2022/06/19 00:45:00;;;;;;;14.00;4.63;;;;;;;21.09;73.95;99989.00;4977171;28;20042;-72
2022/06/19 00:47:34;;;;;;;11.85;4.55;;;;;;;21.10;74.10;99979.88;4971272;28;20681;-71
2022/06/19 00:50:06;;;;;;;10.05;4.53;;;;;;;21.05;74.56;99973.53;4971782;28;20026;-69
2022/06/19 00:52:33;;;;;;;7.05;4.05;;;;;;;21.03;74.34;99973.75;4984505;28;20011;-72
2022/06/19 00:55:02;;;;;;;14.23;4.40;;;;;;;20.99;74.46;99969.06;4950766;28;20018;-71
2022/06/19 00:57:28;;;;;;;8.65;4.40;;;;;;;20.99;74.44;99969.06;4973618;28;20560;-73
2022/06/19 01:00:03;;;;;;;9.45;4.97;;;;;;;21.06;73.76;99964.41;4989813;28;20085;-71
2022/06/19 01:02:29;;;;;;;13.20;4.55;;;;;;;20.91;74.12;99965.63;4991505;28;20287;-70
2022/06/19 01:04:54;;;;;;;13.98;5.07;;;;;;;20.89;74.32;99964.19;4954975;28;20108;-71
2022/06/19 01:07:22;;;;;;;11.15;4.68;;;;;;;20.79;74.79;99958.53;4990480;28;20025;-71
2022/06/19 01:09:50;;;;;;;13.15;4.47;;;;;;;20.76;74.85;99954.41;4991436;28;20410;-70
2022/06/19 01:12:16;;;;;;;15.77;4.43;;;;;;;20.68;74.92;99947.44;4989449;28;20025;-71
2022/06/19 01:14:41;;;;;;;11.70;4.65;;;;;;;20.66;74.40;99948.69;4989363;28;20024;-69
2022/06/19 01:17:08;;;;;;;13.23;4.28;;;;;;;20.62;74.22;99951.00;4971805;28;20511;-71
2022/06/19 01:19:36;;;;;;;11.98;4.72;;;;;;;20.50;74.32;99944.72;4971500;28;20067;-71
2022/06/19 01:22:14;;;;;;;11.38;4.47;;;;;;;20.45;74.74;99945.38;4969160;28;20017;-69
2022/06/19 01:24:58;;;;;;;16.30;4.60;;;;;;;20.37;75.18;99951.84;4991188;28;20049;-70
2022/06/19 01:30:07;;;;;;;;;;;;;;;20.38;74.89;99944.63;4987808;28;20052;-71
2022/06/19 01:32:33;;;;;;;14.23;4.38;;;;;;;20.31;75.26;99947.38;5009603;28;20624;-69
2022/06/19 01:35:00;;;;;;;12.93;4.20;;;;;;;20.28;75.34;99946.97;4974278;28;20407;-71
2022/06/19 01:37:25;;;;;;;11.43;4.70;;;;;;;20.19;75.63;99941.91;4972019;28;20002;-72
2022/06/19 01:39:56;;;;;;;13.38;4.55;;;;;;;20.15;75.80;99940.72;4974050;28;20052;-70
2022/06/19 01:42:22;;;;;;;12.48;4.45;;;;;;;20.20;75.53;99935.47;4974892;28;20070;-71
2022/06/19 01:44:47;;;;;;;7.57;4.55;;;;;;;20.14;75.63;99935.56;4991113;28;20337;-69
2022/06/19 01:47:13;;;;;;;11.65;4.53;;;;;;;20.13;75.26;99929.34;4993798;28;20239;-71
2022/06/19 01:49:38;;;;;;;12.10;4.60;;;;;;;20.11;74.72;99922.53;4973597;28;20027;-71
2022/06/19 01:52:04;;;;;;;13.18;4.70;;;;;;;19.98;75.36;99907.38;4986945;28;20010;-71
2022/06/19 01:54:34;;;;;;;10.93;3.90;;;;;;;20.01;75.25;99909.59;5010525;28;20029;-70
2022/06/19 01:56:59;;;;;;;8.98;4.38;;;;;;;19.90;75.21;99903.91;4990075;27;20082;-72
2022/06/19 01:59:26;;;;;;;10.90;4.00;;;;;;;19.89;75.06;99891.53;4974930;28;20033;-71
2022/06/19 02:01:53;;;;;;;13.68;4.10;;;;;;;19.83;74.81;99896.97;4991255;28;20388;-71
2022/06/19 02:04:19;;;;;;;15.48;4.05;;;;;;;19.82;74.83;99895.31;4973257;28;20532;-71
2022/06/19 02:06:45;;;;;;;12.20;4.38;;;;;;;19.84;75.01;99880.63;4970943;28;20006;-71
2022/06/19 02:09:13;;;;;;;9.77;4.13;;;;;;;19.83;75.25;99879.00;4990270;28;20832;-71
2022/06/19 02:11:38;;;;;;;7.97;4.10;;;;;;;19.86;75.08;99867.81;4954396;28;20702;-71
2022/06/19 02:14:04;;;;;;;11.52;3.50;;;;;;;19.82;75.45;99874.66;4990736;28;20010;-71
2022/06/19 02:16:30;;;;;;;10.60;4.38;;;;;;;19.79;75.56;99863.50;4973482;28;20018;-68
2022/06/19 02:18:55;;;;;;;10.30;3.95;;;;;;;19.85;75.14;99862.66;4975647;28;20315;-71
2022/06/19 02:21:32;;;;;;;10.30;4.50;;;;;;;19.75;75.17;99860.44;5006477;28;21042;-71
2022/06/19 02:23:58;;;;;;;8.43;4.10;;;;;;;19.79;75.19;99861.66;5011680;28;20644;-71
2022/06/19 02:26:23;;;;;;;9.00;3.55;;;;;;;19.78;75.55;99857.31;4993601;28;20875;-71
2022/06/19 02:28:49;;;;;;;9.00;4.18;;;;;;;19.65;76.10;99855.56;4980660;28;20021;-72
2022/06/19 02:31:16;;;;;;;8.63;4.05;;;;;;;19.59;76.61;99842.19;4978677;28;20077;-71
2022/06/19 02:33:45;;;;;;;8.05;4.18;;;;;;;19.65;76.75;99835.97;4981473;28;20915;-72
2022/06/19 02:36:44;;;;;;;11.13;3.78;;;;;;;19.64;76.52;99837.00;4998272;28;20056;-69
2022/06/19 02:39:18;;;;;;;16.40;4.25;;;;;;;19.60;76.53;99833.94;4971753;28;20037;-69
2022/06/19 02:41:46;;;;;;;11.55;4.30;;;;;;;19.62;76.68;99831.03;5016588;28;20735;-71
2022/06/19 02:44:12;;;;;;;13.35;4.20;;;;;;;19.67;76.29;99829.34;4981766;28;20351;-68
2022/06/19 02:46:37;;;;;;;13.10;4.13;;;;;;;19.64;76.24;99820.88;4998667;28;20018;-71
2022/06/19 02:49:03;;;;;;;9.25;3.70;;;;;;;19.62;76.01;99820.28;4998821;28;20010;-72
2022/06/19 02:51:29;;;;;;;7.60;3.70;;;;;;;19.49;76.08;99827.41;4993501;28;20030;-72
2022/06/19 02:53:54;;;;;;;9.60;3.80;;;;;;;19.49;76.57;99827.41;4980873;28;20405;-69
2022/06/19 02:56:20;;;;;;;9.07;3.72;;;;;;;19.59;76.00;99831.44;5022101;28;20069;-70
2022/06/19 02:58:46;;;;;;;10.13;3.80;;;;;;;19.77;75.60;99844.09;4985995;28;20037;-72
2022/06/19 03:01:13;;;;;;;8.38;3.50;;;;;;;19.71;75.54;99843.13;4982213;28;20074;-72
2022/06/19 03:03:38;;;;;;;11.93;3.92;;;;;;;19.65;75.50;99857.44;5004609;28;20060;-69
2022/06/19 03:06:04;;;;;;;13.13;3.97;;;;;;;19.58;75.00;99878.13;5004580;28;20001;-69
2022/06/19 03:08:29;;;;;;;12.52;3.78;;;;;;;19.56;75.04;99881.84;4991510;28;20101;-71
2022/06/19 03:10:55;;;;;;;12.00;3.80;;;;;;;19.55;74.89;99885.56;4983518;28;20025;-72
2022/06/19 03:13:21;;;;;;;10.75;4.10;;;;;;;19.56;74.44;99889.91;5015862;28;20028;-72
2022/06/19 03:15:47;;;;;;;11.60;4.07;;;;;;;19.58;73.74;99891.53;5001895;28;20013;-72
2022/06/19 03:18:12;;;;;;;11.68;4.13;;;;;;;19.71;72.32;99899.50;5000755;28;20310;-70
2022/06/19 03:20:37;;;;;;;13.73;4.30;;;;;;;19.83;71.61;99892.41;5012795;28;19997;-72
2022/06/19 03:23:03;;;;;;;13.20;4.55;;;;;;;20.01;71.06;99888.13;4958927;28;20002;-72
2022/06/19 03:25:28;;;;;;;12.32;4.00;;;;;;;20.04;71.80;99904.63;4975176;28;20035;-72
2022/06/19 03:27:54;;;;;;;15.30;4.28;;;;;;;19.98;72.75;99936.91;4992346;28;20630;-68
2022/06/19 03:30:19;;;;;;;9.40;4.38;;;;;;;20.03;72.35;99929.84;4980675;28;20888;-70
2022/06/19 03:32:45;;;;;;;18.25;4.40;;;;;;;20.06;71.95;99888.28;4982995;28;20025;-71
2022/06/19 03:35:10;;;;;;;11.00;4.10;;;;;;;19.98;72.35;99902.00;4990405;28;20017;-71
2022/06/19 03:37:36;;;;;;;11.13;4.30;;;;;;;19.86;72.93;99931.44;4974171;28;20028;-71
2022/06/19 03:40:01;;;;;;;11.80;4.07;;;;;;;19.95;72.93;99931.97;4974424;28;20128;-70
2022/06/19 03:42:27;;;;;;;12.20;4.28;;;;;;;19.96;73.29;99944.38;4988344;28;20572;-71
2022/06/19 03:44:52;;;;;;;9.88;4.30;;;;;;;19.97;73.30;99956.75;4958267;28;20068;-71
2022/06/19 03:47:22;;;;;;;11.27;5.35;;;;;;;20.08;73.85;99985.59;4976140;28;20846;-71
2022/06/19 03:49:48;;;;;;;14.57;6.20;;;;;;;20.25;75.94;99967.06;4990287;28;20531;-71
2022/06/19 03:52:14;;;;;;;8.77;5.78;;;;;;;20.32;76.86;99953.56;4986389;28;20126;-71
2022/06/19 03:54:39;;;;;;;13.60;5.93;;;;;;;20.33;77.43;99976.72;4987766;28;20078;-71
2022/06/19 03:57:05;;;;;;;7.75;5.43;;;;;;;20.42;77.65;100002.28;4971406;28;20576;-69
2022/06/19 03:59:30;;;;;;;8.13;4.93;;;;;;;20.48;77.42;100000.56;4983020;28;20167;-71
2022/06/19 04:01:56;;;;;;;8.27;5.22;;;;;;;20.45;77.63;99996.44;4990104;28;20018;-72
2022/06/19 04:04:21;;;;;;;6.68;4.25;;;;;;;20.54;76.36;100022.00;4990496;28;20024;-71
2022/06/19 04:06:47;;;;;;;6.22;4.10;;;;;;;20.51;76.23;100011.69;4989795;28;20037;-71
2022/06/19 04:09:14;;;;;;;5.03;3.60;;;;;;;20.46;76.37;100033.03;5013250;28;20905;-69
2022/06/19 04:11:40;;;;;;;4.43;3.67;;;;;;;20.45;75.37;100028.69;4989628;28;20766;-72
2022/06/19 04:14:06;;;;;;;4.78;3.38;;;;;;;20.41;75.25;100030.19;4962862;28;20029;-72
2022/06/19 04:16:32;;;;;;;4.80;3.10;;;;;;;20.46;74.63;100038.41;4954133;28;20843;-70
2022/06/19 04:18:58;;;;;;;4.18;2.88;;;;;;;20.29;74.69;100050.72;4965184;28;20029;-71
2022/06/19 04:21:25;;;;;;;3.67;3.08;;;;;;;20.29;74.19;100065.00;4973229;28;20006;-73
2022/06/19 04:23:53;;;;;;;4.72;3.00;;;;;;;20.28;74.11;100062.50;4992136;28;20129;-69
2022/06/19 04:26:19;;;;;;;5.20;2.85;;;;;;;20.23;73.46;100069.38;5006897;28;20005;-73
2022/06/19 04:28:45;;;;;;;2.88;2.67;;;;;;;20.26;73.35;100073.47;4990602;28;20056;-71
2022/06/19 04:31:10;;;;;;;2.60;2.40;;;;;;;20.29;73.08;100064.16;5009448;28;20013;-68
2022/06/19 04:33:39;;;;;;;3.33;2.60;;;;;;;20.22;72.96;100086.53;5011750;28;20017;-71
2022/06/19 04:36:09;;;;;;;6.88;2.70;;;;;;;20.22;70.91;100070.41;4990802;28;20022;-71
2022/06/19 04:38:38;;;;;;;5.10;2.53;;;;;;;20.16;71.49;100094.63;4973851;28;20049;-71
2022/06/19 04:41:03;;;;;;;6.20;2.70;;;;;;;20.28;70.76;100094.75;4989025;28;20936;-72
2022/06/19 04:43:29;;;;;;;3.40;2.42;;;;;;;20.07;70.80;100105.63;4992843;28;20017;-71
2022/06/19 04:46:04;;;;;;;6.82;2.67;;;;;;;20.03;70.34;100084.78;4989130;28;20143;-71
2022/06/19 04:48:29;;;;;;;4.60;2.40;;;;;;;19.95;70.09;100083.16;4959057;28;20366;-71
2022/06/19 04:50:55;;;;;;;4.88;2.20;;;;;;;19.93;69.63;100092.50;4953988;28;20022;-72
2022/06/19 04:53:20;;;;;;;7.30;2.08;;;;;;;19.89;69.40;100079.47;4971294;28;20033;-70
2022/06/19 04:55:46;;;;;;;4.38;2.28;;;;;;;19.84;69.17;100073.94;4971678;28;20953;-69
2022/06/19 04:58:11;;;;;;;3.88;2.03;;;;;;;19.88;68.52;100066.28;4991896;28;20041;-69
2022/06/19 05:00:36;;;;;;;5.03;2.28;;;;;;;19.78;68.62;100074.75;4992116;28;20731;-70
2022/06/19 05:03:02;;;;;;;4.38;2.60;;;;;;;19.84;67.62;100065.91;4991069;28;20124;-70
2022/06/19 05:05:28;;;;;;;2.53;2.33;;;;;;;19.81;66.64;100076.22;4973262;28;20018;-70
2022/06/19 05:07:53;;;;;;;5.43;2.88;;;;;;;19.79;66.87;100079.13;5009282;28;20037;-69
2022/06/19 05:10:18;;;;;;;3.63;2.50;;;;;;;19.79;66.94;100078.28;5008335;28;20014;-69
2022/06/19 05:12:44;;;;;;;4.97;2.65;;;;;;;19.77;66.05;100070.44;4974920;28;20389;-70
2022/06/19 05:15:10;;;;;;;2.83;2.40;;;;;;;19.72;66.02;100062.19;4974371;28;20150;-70
2022/06/19 05:17:35;;;;;;;4.07;2.53;;;;;;;19.59;65.99;100068.47;4958109;28;20027;-70
2022/06/19 05:20:02;;;;;;;3.03;2.47;;;;;;;19.61;66.40;100076.28;4988140;28;20026;-70
2022/06/19 05:22:28;;;;;;;3.22;2.53;;;;;;;19.56;65.74;100125.25;5000691;28;20577;-70
2022/06/19 05:24:53;;;;;;;3.53;2.60;;;;;;;19.63;65.37;100185.09;4985865;28;20898;-71
2022/06/19 05:27:19;;;;;;;7.18;2.30;;;;;;;19.53;64.61;100129.16;5003674;28;20025;-72
2022/06/19 05:29:44;;;;;;;5.18;2.30;;;;;;;19.52;65.02;100110.59;4980108;28;20017;-70
2022/06/19 05:32:09;;;;;;;4.53;1.80;;;;;;;19.50;64.77;100123.38;5000536;28;20342;-70
2022/06/19 05:34:36;;;;;;;5.63;2.30;;;;;;;19.43;63.87;100125.28;4966295;28;20817;-72
2022/06/19 05:37:02;;;;;;;5.40;2.30;;;;;;;19.36;63.25;100142.22;4953727;28;20446;-72
2022/06/19 05:39:27;;;;;;;5.82;2.20;;;;;;;19.26;63.06;100127.56;4954796;28;20478;-71
2022/06/19 05:41:54;;;;;;;5.70;2.17;;;;;;;19.18;62.33;100118.72;4957068;28;20201;-71
2022/06/19 05:44:20;;;;;;;5.78;2.30;;;;;;;19.12;62.83;100118.72;4978120;28;20022;-72
2022/06/19 05:46:49;;;;;;;7.07;2.63;;;;;;;19.16;61.82;100134.22;4990413;28;20048;-72
2022/06/19 05:49:14;;;;;;;5.45;2.47;;;;;;;19.21;62.52;100117.47;4991689;28;20489;-73
2022/06/19 05:51:40;;;;;;;7.25;2.50;;;;;;;19.22;62.03;100127.19;5007023;28;20082;-70
2022/06/19 05:54:06;;;;;;;4.50;2.15;;;;;;;19.36;62.04;100120.75;4992426;28;20029;-71
2022/06/19 05:56:31;;;;;;;4.80;2.53;;;;;;;19.36;62.13;100117.22;5013438;28;20017;-70
2022/06/19 05:58:57;;;;;;;4.88;2.33;;;;;;;19.35;62.12;100099.50;4995248;28;20056;-70
2022/06/19 06:01:22;;;;;;;8.55;2.83;;;;;;;19.46;62.31;100098.84;4993931;28;20017;-72
2022/06/19 06:03:48;;;;;;;5.45;2.03;;;;;;;19.51;61.95;100104.38;4992261;28;20002;-71
2022/06/19 06:06:15;;;;;;;4.35;2.08;;;;;;;19.47;61.22;100094.28;4960510;28;20063;-71
2022/06/19 06:08:41;;;;;;;6.72;2.13;;;;;;;19.43;61.63;100095.75;4999782;27;20020;-70
2022/06/19 06:11:06;;;;;;;6.55;2.40;;;;;;;19.32;61.25;100094.53;5006483;27;20363;-72
2022/06/19 06:13:32;;;;;;;6.95;2.30;;;;;;;19.43;61.39;100093.91;4991969;27;20005;-71
2022/06/19 06:15:58;;;;;;;8.25;2.72;;;;;;;19.48;62.02;100096.78;4972497;27;20016;-72
2022/06/19 06:18:23;;;;;;;5.72;2.25;;;;;;;19.54;62.29;100113.88;4973494;27;20025;-69
2022/06/19 06:21:02;;;;;;;7.05;2.47;;;;;;;19.65;60.74;100115.91;5014931;28;20363;-71
2022/06/19 06:23:28;;;;;;;9.23;2.28;;;;;;;19.61;61.02;100093.22;5040459;28;20017;-71
2022/06/19 06:26:01;;;;;;;6.82;2.20;;;;;;;19.67;61.02;100108.47;4995556;28;20043;-71
2022/06/19 06:28:27;;;;;;;3.95;1.80;;;;;;;19.61;60.50;100108.50;4974684;28;20078;-71
2022/06/19 06:30:52;;;;;;;5.88;2.22;;;;;;;19.68;60.87;100101.25;5004230;28;20014;-69
2022/06/19 06:33:17;;;;;;;8.30;2.20;;;;;;;19.70;60.71;100097.31;5008816;28;21017;-70
2022/06/19 06:35:43;;;;;;;6.28;2.72;;;;;;;19.72;60.81;100089.84;4971374;28;20138;-71
2022/06/19 06:38:08;;;;;;;4.75;2.55;;;;;;;19.78;60.84;100093.53;4980605;28;21013;-72
2022/06/19 06:40:34;;;;;;;7.45;1.98;;;;;;;19.84;60.59;100087.38;5007576;28;20142;-72
2022/06/19 06:42:59;;;;;;;7.90;2.25;;;;;;;19.92;60.34;100064.00;4971521;28;20162;-70
2022/06/19 06:45:24;;;;;;;4.43;2.20;;;;;;;20.03;61.14;100071.38;4986585;28;20044;-70
2022/06/19 06:47:50;;;;;;;4.90;2.03;;;;;;;20.20;60.92;100058.25;4970875;28;20026;-70
2022/06/19 06:50:15;;;;;;;6.70;2.30;;;;;;;20.29;60.83;100056.94;4993114;28;20021;-69
2022/06/19 06:52:41;;;;;;;5.18;2.10;;;;;;;20.40;60.92;100064.31;4953660;28;20025;-71
2022/06/19 06:55:07;;;;;;;5.82;2.13;;;;;;;20.59;60.65;100073.25;4973026;28;20026;-70
2022/06/19 06:57:32;;;;;;;5.10;2.10;;;;;;;20.72;60.30;100087.66;5006839;28;20041;-69
2022/06/19 06:59:58;;;;;;;5.90;2.03;;;;;;;20.75;59.50;100081.81;4988276;28;20992;-70
2022/06/19 07:02:23;;;;;;;7.05;2.20;;;;;;;20.85;60.47;100089.38;4970774;28;20861;-70
2022/06/19 07:04:49;;;;;;;5.47;1.98;;;;;;;21.04;58.78;100117.97;4970808;28;20899;-73
2022/06/19 07:07:14;;;;;;;3.80;2.30;;;;;;;21.00;59.01;100137.47;4956241;28;20101;-71
2022/06/19 07:09:39;;;;;;;3.65;2.22;;;;;;;20.82;59.89;100151.69;4988771;28;20037;-71
2022/06/19 07:12:05;;;;;;;7.20;2.50;;;;;;;20.72;59.51;100162.94;4989377;28;20392;-71
2022/06/19 07:14:31;;;;;;;12.43;2.85;;;;;;;20.63;59.49;100177.63;4970734;28;20867;-72
2022/06/19 07:16:56;;;;;;;5.05;2.53;;;;;;;20.69;59.75;100190.25;4987258;28;20117;-71
2022/06/19 07:19:22;;;;;;;5.82;2.40;;;;;;;20.72;59.94;100205.94;4970488;28;20052;-71
2022/06/19 07:21:47;;;;;;;4.72;2.50;;;;;;;20.93;59.79;100251.31;4984183;28;20037;-70
2022/06/19 07:24:13;;;;;;;7.03;3.03;;;;;;;21.02;59.43;100288.72;4975175;28;20002;-70
2022/06/19 07:26:38;;;;;;;7.45;3.03;;;;;;;21.07;58.14;100305.84;4987483;28;20832;-70
2022/06/19 07:29:05;;;;;;;8.73;2.80;;;;;;;21.09;56.84;100357.59;4955499;28;20013;-72
2022/06/19 07:31:30;;;;;;;7.63;2.65;;;;;;;21.04;57.45;100383.47;4970291;28;20032;-71
2022/06/19 07:33:56;;;;;;;8.43;2.38;;;;;;;21.03;56.63;100395.28;4988236;28;20446;-70
2022/06/19 07:36:22;;;;;;;11.25;2.80;;;;;;;21.01;57.12;100408.94;5002447;28;20527;-71
2022/06/19 07:38:48;;;;;;;7.53;2.50;;;;;;;21.13;56.30;100421.72;5007857;28;20048;-70
2022/06/19 07:41:13;;;;;;;8.07;2.60;;;;;;;21.20;56.84;100417.94;4991302;28;20113;-71
2022/06/19 07:43:38;;;;;;;4.88;2.50;;;;;;;21.08;56.07;100430.41;5010844;28;20025;-70
2022/06/19 07:46:04;;;;;;;7.18;2.63;;;;;;;20.99;56.19;100427.16;4984885;28;20286;-71
2022/06/19 07:51:13;;;;;;;;;;;;;;;20.69;56.38;100429.56;5003863;28;20077;-70
2022/06/19 07:53:39;;;;;;;8.27;2.70;;;;;;;20.71;56.00;100414.03;4974837;28;20133;-73
2022/06/19 07:56:04;;;;;;;8.77;2.88;;;;;;;20.79;56.92;100351.94;4986286;28;20811;-72
2022/06/19 07:58:30;;;;;;;9.77;3.00;;;;;;;20.92;56.21;100405.66;4984374;28;20048;-74
2022/06/19 08:00:55;;;;;;;8.32;3.00;;;;;;;20.72;54.60;100415.69;4955364;28;20059;-72
2022/06/19 10:29:03;;;;;;;16.90;4.00;;;;;;;21.67;56.11;100082.97;5070456;27;21009;-70
2022/06/19 10:31:40;;;;;;;10.48;4.50;;;;;;;21.47;55.43;100035.53;5026247;27;20060;-71
2022/06/19 10:34:35;;;;;;;10.23;4.00;;;;;;;21.45;55.51;99967.66;4992941;27;20097;-72
2022/06/19 10:38:00;;;;;;;10.07;3.63;;;;;;;21.31;56.18;99958.09;5040322;27;20119;-72
2022/06/19 10:40:29;;;;;;;;;;;;;;;21.70;56.30;99955.94;4966606;28;20492;-72
2022/06/19 10:43:03;;;;;;;7.80;3.88;;;;;;;22.15;53.46;99947.34;4966187;28;20332;-71
2022/06/19 10:45:49;;;;;;;8.77;3.70;;;;;;;23.17;52.34;99985.81;4989975;27;20008;-72
2022/06/19 10:48:30;;;;;;;10.75;4.00;;;;;;;24.19;50.33;100072.53;5009717;27;20045;-73
2022/06/19 10:51:11;;;;;;;9.20;4.13;;;;;;;25.17;47.66;100218.41;5019174;27;20312;-73
2022/06/19 10:53:57;;;;;;;10.18;4.20;;;;;;;25.27;45.51;100215.03;5031334;27;20769;-71
2022/06/19 10:56:38;;;;;;;16.10;4.47;;;;;;;24.98;44.08;100179.91;5015078;27;20061;-72
2022/06/19 10:59:04;;;;;;;10.27;4.25;;;;;;;25.22;44.56;100222.25;5040297;27;20495;-71
2022/06/19 11:04:32;;;;;;;9.82;4.25;;;;;;;25.25;44.65;100303.00;5035593;27;20152;-71
2022/06/19 11:07:05;;;;;;;11.38;4.53;;;;;;;24.95;44.55;100304.13;5037763;28;20037;-71
2022/06/19 11:09:52;;;;;;;8.27;3.88;;;;;;;24.94;45.05;100243.72;5030439;27;20023;-71
2022/06/19 11:12:57;;;;;;;12.55;4.75;;;;;;;24.63;46.18;100232.38;5024290;27;20062;-72
2022/06/19 11:15:27;;;;;;;11.13;4.60;;;;;;;24.78;45.58;100241.84;4955204;28;20022;-72
2022/06/19 11:18:20;;;;;;;12.20;4.53;;;;;;;25.17;43.29;100275.28;4967804;28;20098;-71
2022/06/19 11:20:54;;;;;;;9.80;4.00;;;;;;;25.36;43.78;100265.03;4995051;27;20873;-72
2022/06/19 11:23:34;;;;;;;10.02;4.32;;;;;;;25.07;43.36;100244.47;5036012;27;20451;-71
2022/06/19 11:26:06;;;;;;;8.70;3.78;;;;;;;25.26;45.17;100243.19;5012407;27;20572;-72
2022/06/19 11:28:38;;;;;;;12.65;5.10;;;;;;;24.98;45.62;100222.41;5044317;27;20121;-71
2022/06/19 11:31:26;;;;;;;11.35;3.90;;;;;;;25.27;44.20;100208.78;5019218;27;20716;-72
2022/06/19 11:33:54;;;;;;;11.68;3.97;;;;;;;25.28;43.58;100188.75;5020429;28;20728;-72
2022/06/19 11:36:34;;;;;;;10.07;4.28;;;;;;;26.15;43.20;100197.28;5011501;27;20009;-72
2022/06/19 11:39:00;;;;;;;10.90;4.45;;;;;;;26.50;41.67;100201.44;4997731;28;20053;-73
2022/06/19 11:41:34;;;;;;;8.25;3.60;;;;;;;26.48;41.71;100211.72;4989261;27;20031;-71
2022/06/19 11:44:00;;;;;;;12.85;5.03;;;;;;;26.37;41.48;100233.31;4997852;28;20032;-71
2022/06/19 11:46:26;;;;;;;11.73;4.90;;;;;;;26.33;40.45;100243.03;4999804;27;20136;-72
2022/06/19 11:48:52;;;;;;;12.05;4.00;;;;;;;26.69;41.78;100256.19;4991533;28;20081;-72
2022/06/19 11:51:22;;;;;;;9.48;4.13;;;;;;;26.98;41.09;100242.34;4998659;27;20015;-72
2022/06/19 11:53:55;;;;;;;10.95;4.38;;;;;;;26.28;41.87;100225.88;4996118;27;20020;-72
2022/06/19 11:56:30;;;;;;;11.13;4.10;;;;;;;26.12;42.53;100224.91;4998754;28;20262;-71
2022/06/19 11:58:57;;;;;;;12.85;3.90;;;;;;;26.67;42.24;100239.31;5029997;27;20381;-72
2022/06/19 12:01:43;;;;;;;9.80;4.00;;;;;;;26.57;41.96;100256.31;5002698;27;20025;-71
2022/06/19 12:04:34;;;;;;;10.23;4.47;;;;;;;27.13;39.52;100288.66;5003937;27;20694;-72
2022/06/19 12:07:04;;;;;;;10.73;4.20;;;;;;;27.15;40.22;100291.09;4977539;27;20036;-72
2022/06/19 12:09:52;;;;;;;8.15;3.80;;;;;;;27.32;39.29;100286.34;5007266;28;20021;-72
2022/06/19 12:12:19;;;;;;;12.60;4.25;;;;;;;27.61;38.99;100293.38;4974107;28;20029;-73
2022/06/19 12:14:48;;;;;;;12.98;4.50;;;;;;;27.92;38.19;100288.94;4995306;27;20490;-71
2022/06/19 12:17:33;;;;;;;10.15;4.30;;;;;;;27.77;38.45;100297.84;5015785;27;20077;-72
2022/06/19 12:20:05;;;;;;;10.48;4.00;;;;;;;27.88;38.78;100306.88;5013150;27;20036;-70
2022/06/19 12:22:42;;;;;;;11.38;3.97;;;;;;;27.90;39.38;100288.38;5002505;28;20617;-72
2022/06/19 12:25:33;;;;;;;8.88;3.40;;;;;;;28.51;39.68;100279.66;4997945;28;20005;-71
2022/06/19 12:28:07;;;;;;;10.98;3.83;;;;;;;29.12;38.66;100279.00;4987562;27;20049;-72
2022/06/19 12:30:44;;;;;;;12.60;3.67;;;;;;;29.35;37.45;100260.47;5023522;27;20013;-72
2022/06/19 12:33:14;;;;;;;11.88;3.60;;;;;;;29.64;37.50;100262.59;5002257;27;20020;-72
2022/06/19 12:35:45;;;;;;;7.50;3.47;;;;;;;29.11;37.56;100263.72;4996239;28;20040;-71
2022/06/19 12:38:12;;;;;;;9.00;3.60;;;;;;;28.91;37.04;100304.59;5001599;28;20478;-72
2022/06/19 12:40:46;;;;;;;8.88;3.70;;;;;;;29.13;36.04;100313.31;4982151;27;20813;-72
2022/06/19 12:43:31;;;;;;;9.82;3.58;;;;;;;29.24;36.18;100307.91;5008022;27;20022;-72
2022/06/19 12:45:57;;;;;;;7.18;3.50;;;;;;;29.92;35.88;100325.84;5018434;27;20062;-73
2022/06/19 12:48:41;;;;;;;9.60;3.70;;;;;;;29.89;36.00;100323.66;4983594;27;20046;-72
2022/06/19 12:51:34;;;;;;;12.52;3.78;;;;;;;29.74;34.58;100335.38;4995369;28;20032;-72
2022/06/19 18:12:14;;;;;;;3.30;1.92;;;;;;;22.73;49.13;100435.81;5061312;27;20412;-66
2022/06/19 18:14:42;;;;;;;4.25;1.90;;;;;;;22.60;49.18;100445.72;5001190;27;20224;-69
2022/06/19 18:19:53;;;;;;;7.65;2.25;;;;;;;22.40;54.96;100437.00;5038047;27;20027;-68
2022/06/19 18:22:18;;;;;;;4.57;1.95;;;;;;;22.13;53.99;100445.31;5053619;27;20182;-70
2022/06/19 18:24:44;;;;;;;4.13;2.22;;;;;;;21.97;55.58;100444.00;5030936;27;20799;-69
2022/06/19 18:27:20;;;;;;;3.60;1.92;;;;;;;21.89;54.96;100447.78;5032432;27;20184;-71
2022/06/19 18:29:55;;;;;;;5.68;2.08;;;;;;;21.87;55.72;100455.25;5002520;27;20350;-71
2022/06/19 18:32:29;;;;;;;6.55;1.80;;;;;;;21.58;54.42;100445.94;5019615;27;20048;-70
2022/06/19 18:35:06;;;;;;;5.25;1.83;;;;;;;21.53;54.04;100454.66;5049789;27;20024;-72
2022/06/19 18:37:31;;;;;;;3.85;2.20;;;;;;;21.50;55.58;100459.63;5019694;27;20838;-71
2022/06/19 18:39:57;;;;;;;3.88;1.95;;;;;;;21.41;55.45;100465.25;5018730;27;20021;-68
2022/06/19 18:42:22;;;;;;;3.10;1.85;;;;;;;21.45;54.46;100471.03;5036742;27;20024;-68
2022/06/19 18:44:54;;;;;;;6.60;1.67;;;;;;;21.35;53.20;100467.97;5017929;27;20025;-68
2022/06/19 18:47:19;;;;;;;4.47;1.80;;;;;;;21.41;53.23;100462.56;5030727;27;20025;-68
2022/06/19 18:49:52;;;;;;;2.83;1.50;;;;;;;21.22;52.73;100464.31;5030929;27;20013;-69
2022/06/19 18:52:21;;;;;;;2.88;1.70;;;;;;;21.14;53.30;100467.25;5034190;27;20469;-70
2022/06/19 18:54:47;;;;;;;5.85;2.15;;;;;;;21.00;53.08;100469.16;5035017;27;20066;-69
2022/06/19 18:57:14;;;;;;;4.95;1.90;;;;;;;20.90;53.08;100450.78;5022080;27;20428;-70
2022/06/19 18:59:41;;;;;;;5.85;1.77;;;;;;;20.74;53.73;100435.94;5036213;27;20020;-70
2022/06/19 19:02:07;;;;;;;6.70;2.30;;;;;;;20.89;53.26;100424.91;5044036;27;20023;-71
2022/06/19 19:04:33;;;;;;;5.55;1.67;;;;;;;20.85;53.94;100420.19;5007827;27;20241;-69
2022/06/19 19:07:01;;;;;;;3.30;1.80;;;;;;;20.89;53.81;100406.09;5058545;27;20460;-69
2022/06/19 19:09:39;;;;;;;5.53;2.03;;;;;;;21.00;53.74;100406.47;5039826;27;20467;-69
2022/06/19 19:12:05;;;;;;;5.28;2.13;;;;;;;20.85;53.69;100390.59;5017934;27;20833;-70
2022/06/19 19:14:31;;;;;;;7.30;1.85;;;;;;;20.91;53.35;100377.13;5028648;27;20019;-71
2022/06/19 19:16:56;;;;;;;2.95;1.80;;;;;;;20.90;53.57;100348.56;5026628;27;20076;-70
2022/06/19 19:19:26;;;;;;;6.22;2.20;;;;;;;20.58;53.95;100348.47;5036353;27;20008;-70
2022/06/19 19:21:52;;;;;;;5.40;1.92;;;;;;;20.46;55.06;100347.50;5017842;27;20017;-71
2022/06/19 19:24:17;;;;;;;4.50;1.90;;;;;;;20.52;54.96;100352.00;5043863;27;20242;-69
2022/06/19 19:26:44;;;;;;;3.47;1.80;;;;;;;20.54;54.36;100373.31;5032239;27;20516;-70